Ocean Giant — WDG4379 — position and weather

sailwx.info

Track history (hours):
 
Tides and Currents Weather Stations Pressure Air Temp Water Temp Dewpoint Dewpoint Depression Visibility Wind Speed Wind Dir Waves Ship Positions

Ocean Giant

Owner: Seabulk Fleet Management, Tampa, FL. More information available from US FCC via Universal Licensing System and Coast Guard Vessel Documentation Center.

Last reported at 2018-May-12 06:19 UTC. Time now 2018-May-22 02:31 UTC.
Position N 01°19' E 103°19'.
Warning: this ship's position is 9 days out of date.

Length 170 m; draft 8.1 m.

Type: Ship. MMSI: 367535950.

Date/timePositionNaut miles runAvg speedWind from/ knotsBaromVisibWave heightAir tempDewpointWater temp
2018-May-12 06:19N 01°19' E 103°19'617.4
2018-May-12 06:00N 01°15' E 103°23'816.4
2018-May-12 05:30N 01°12' E 103°31'816.1
2018-May-12 04:59N 01°11' E 103°39'713.6
2018-May-12 04:30N 01°09' E 103°45'714.6
2018-May-12 04:00N 01°12' E 103°52'715.3
2018-May-12 03:31N 01°15' E 103°59'815.4
2018-May-12 02:59N 01°17' E 104°07'715.4
2018-May-12 02:30N 01°18' E 104°14'814.8
2018-May-12 01:58N 01°21' E 104°21'715.8
2018-May-12 01:30N 01°26' E 104°27'  
Track history (hours):
 
Tides and Currents Weather Stations Pressure Air Temp Water Temp Dewpoint Dewpoint Depression Visibility Wind Speed Wind Dir Waves Ship Positions

Ocean Giant

Owner: Seabulk Fleet Management, Tampa, FL. More information available from US FCC via Universal Licensing System and Coast Guard Vessel Documentation Center.

Last reported at 2018-May-12 06:19 UTC. Time now 2018-May-22 02:31 UTC.
Position N 01°19' E 103°19'.
Warning: this ship's position is 9 days out of date.

Length 170 m; draft 8.1 m.

Type: Ship. MMSI: 367535950.

Date/timePositionNaut miles runAvg speedWind from/ knotsBaromVisibWave heightAir tempDewpointWater temp
2018-May-12 06:19N 01°19' E 103°19'617.4
2018-May-12 06:00N 01°15' E 103°23'816.4
2018-May-12 05:30N 01°12' E 103°31'816.1
2018-May-12 04:59N 01°11' E 103°39'713.6
2018-May-12 04:30N 01°09' E 103°45'714.6
2018-May-12 04:00N 01°12' E 103°52'715.3
2018-May-12 03:31N 01°15' E 103°59'815.4
2018-May-12 02:59N 01°17' E 104°07'715.4
2018-May-12 02:30N 01°18' E 104°14'814.8
2018-May-12 01:58N 01°21' E 104°21'715.8
2018-May-12 01:30N 01°26' E 104°27'  

Dump ship's entire track history